Flugplatz - Wetter - Augsburg

[Quelle: ADDS]
METAR
EDMA 260420Z 25015KT 8000 -RA BKN010 OVC018 13/11 Q1006 =
TAF
SR / SS: 03:47 / 19:03 UTC (Günzburg 2017-07-26)

Flugplatz - Wetter - Laupheim

[Quelle: ADDS]
METAR
ETHL 260420Z 25014KT 6000 RA SCT008 OVC018 12/11 Q1008 WHT WHT TEMPO GRN =
TAF
ETHL 260421Z 2605/2614 25015KT 7000 RA SCT012 BKN020 TEMPO 2605/2610 25012G22KT 4000 SHRA BKN008 BKN015CB BECMG 2610/2612 26012KT 9999 -RA SCT015 BKN030 =

Notice: Undefined index: sun in /homepages/1/d158740339/htdocs/joomla/modules/mod_wx/tmpl/default.php on line 13

Flugplatz - Wetter - Memmingen

[Quelle: ADDS]
METAR
EDJA 260420Z 25015KT 9999 RA BKN009 BKN019 OVC061 12/11 Q1008 =
TAF

Notice: Undefined index: sun in /homepages/1/d158740339/htdocs/joomla/modules/mod_wx/tmpl/default.php on line 13

Flugplatz - Wetter - Neuburg/Donau

[Quelle: ADDS]
METAR
ETSN 260420Z 26012KT 3000 DZRA BR FEW005 BKN007 OVC013 13/12 Q1004 YLO GRN TEMPO YLO =
TAF
ETSN 260425Z 2605/2614 25010G20KT 5000 -RA FEW006 BKN012 TEMPO 2605/2614 26015G25KT 3000 DZRA BKN006 OVC012 BY ETGL =

Notice: Undefined index: sun in /homepages/1/d158740339/htdocs/joomla/modules/mod_wx/tmpl/default.php on line 13

Flugplatz - Wetter - Stuttgart

[Quelle: ADDS]
METAR
EDDS 260420Z 28012KT 8000 -RA FEW008 SCT013 BKN018 14/13 Q1008 RERA NOSIG =
TAF
EDDS 252300Z 2600/2624 25008KT 9999 SCT015 BKN025 TEMPO 2600/2609 4000 RA BKN010 TEMPO 2609/2611 RA BKN012 BECMG 2619/2622 22003KT =

Notice: Undefined index: sun in /homepages/1/d158740339/htdocs/joomla/modules/mod_wx/tmpl/default.php on line 13

Flugplatz - Wetter - Niederstetten

[Quelle: ADDS]
METAR
ETHN 260420Z 30008KT 6000 RA BKN004 OVC020 12/11 Q1006 YLO YLO TEMPO GRN =
TAF
ETHN 260428Z 2605/2614 30015KT 4000 RA BKN005 OVC012 TEMPO 2605/2613 29012KT 8000 NSW SCT012 BKN020 BECMG 2612/2614 25008KT 9999 NSW SCT020 BKN040 =

Notice: Undefined index: sun in /homepages/1/d158740339/htdocs/joomla/modules/mod_wx/tmpl/default.php on line 13